Time;durP1;ratioP1;P1;durP2;ratioP2;P2;SDS_P1;SDS_P2;PMS_P1;PMS_P2;Temp;Humidity;BMP_temperature;BMP_pressure;BME280_temperature;BME280_humidity;BME280_pressure;Samples;Min_cycle;Max_cycle;Signal;HPM_P1;HPM_P2
2021/11/01 00:00:41;;;;;;;5.03;4.40;;;5.80;99.90;;;;;;5014150;28;20100;-67
2021/11/01 00:03:07;;;;;;;4.65;4.07;;;5.80;99.90;;;;;;5011816;28;20036;-67
2021/11/01 00:05:33;;;;;;;7.07;4.63;;;5.80;99.90;;;;;;5012662;28;20034;-68
2021/11/01 00:07:59;;;;;;;6.25;4.80;;;5.80;99.90;;;;;;5015488;28;20127;-67
2021/11/01 00:10:25;;;;;;;6.15;4.93;;;5.90;99.90;;;;;;5008326;28;20100;-67
2021/11/01 00:12:50;;;;;;;5.22;4.60;;;5.90;99.90;;;;;;5011389;28;20079;-67
2021/11/01 00:15:16;;;;;;;5.47;3.47;;;5.90;99.90;;;;;;5008584;28;20040;-67
2021/11/01 00:17:42;;;;;;;5.03;3.88;;;6.00;99.90;;;;;;5011369;28;20044;-67
2021/11/01 00:20:10;;;;;;;4.43;3.60;;;6.00;99.90;;;;;;5013031;28;20040;-67
2021/11/01 00:22:36;;;;;;;5.00;4.40;;;5.90;99.90;;;;;;5042194;28;20523;-67
2021/11/01 00:25:04;;;;;;;4.70;4.18;;;5.70;96.90;;;;;;5010972;28;20037;-67
2021/11/01 00:27:30;;;;;;;5.50;4.60;;;5.50;96.70;;;;;;5012553;28;20040;-67
2021/11/01 00:29:56;;;;;;;4.18;3.78;;;5.60;97.30;;;;;;5008584;28;20029;-67
2021/11/01 00:32:22;;;;;;;5.57;4.78;;;5.40;96.90;;;;;;5009933;28;20029;-67
2021/11/01 00:34:47;;;;;;;7.93;6.20;;;5.50;97.80;;;;;;5010731;28;20034;-67
2021/11/01 00:37:13;;;;;;;13.30;8.52;;;5.50;97.90;;;;;;5011807;28;20037;-66
2021/11/01 00:39:39;;;;;;;10.63;6.72;;;5.40;98.20;;;;;;5012333;28;20033;-68
2021/11/01 00:42:06;;;;;;;5.70;4.68;;;5.40;98.40;;;;;;5011947;28;20030;-67
2021/11/01 00:44:32;;;;;;;4.40;3.95;;;5.40;99.40;;;;;;5008562;28;20026;-67
2021/11/01 00:46:58;;;;;;;5.07;4.25;;;5.40;99.20;;;;;;5011663;28;20843;-67
2021/11/01 00:49:28;;;;;;;5.38;4.72;;;5.50;99.70;;;;;;5020372;28;20079;-67
2021/11/01 00:51:58;;;;;;;4.80;4.32;;;5.50;99.50;;;;;;5010208;28;20018;-66
2021/11/01 00:54:24;;;;;;;5.45;4.50;;;5.50;99.70;;;;;;5006252;28;20136;-67
2021/11/01 00:56:50;;;;;;;5.55;4.18;;;5.50;99.00;;;;;;5011541;28;20186;-67
2021/11/01 00:59:16;;;;;;;4.32;3.92;;;5.50;97.90;;;;;;5006810;28;20033;-67
2021/11/01 01:01:42;;;;;;;4.75;4.20;;;5.30;97.50;;;;;;5009646;28;20080;-67
2021/11/01 01:04:08;;;;;;;5.45;3.88;;;5.30;98.10;;;;;;5008358;28;20034;-66
2021/11/01 01:06:34;;;;;;;5.00;4.07;;;5.40;99.10;;;;;;5010470;28;20038;-67
2021/11/01 01:08:59;;;;;;;4.72;3.95;;;5.40;98.60;;;;;;5007522;28;20038;-67
2021/11/01 01:11:25;;;;;;;4.45;3.28;;;5.30;98.90;;;;;;5010007;28;20030;-67
2021/11/01 01:13:52;;;;;;;3.72;3.42;;;5.30;99.90;;;;;;5024484;28;20048;-67
2021/11/01 01:18:46;;;;;;;5.00;3.97;;;5.30;99.20;;;;;;5011754;28;20045;-67
2021/11/01 01:23:56;;;;;;;5.63;4.45;;;5.00;96.70;;;;;;5022267;28;20057;-67
2021/11/01 01:26:22;;;;;;;4.13;3.65;;;4.80;96.60;;;;;;5026788;28;20479;-67
2021/11/01 01:28:48;;;;;;;15.23;8.65;;;4.60;99.90;;;;;;5027827;28;20697;-67
2021/11/01 01:31:15;;;;;;;15.65;10.35;;;4.70;99.70;;;;;;5039720;28;20441;-67
2021/11/01 01:33:41;;;;;;;7.28;5.43;;;4.70;99.40;;;;;;5054534;28;20025;-67
2021/11/01 01:36:07;;;;;;;6.55;4.80;;;4.70;99.90;;;;;;5026706;28;20471;-66
2021/11/01 01:38:33;;;;;;;3.97;3.17;;;4.60;99.90;;;;;;5036055;28;20623;-67
2021/11/01 01:41:09;;;;;;;5.10;3.60;;;4.60;99.90;;;;;;5036981;28;20061;-67
2021/11/01 01:43:34;;;;;;;10.68;7.10;;;4.80;99.90;;;;;;5021765;28;20479;-66
2021/11/01 01:46:00;;;;;;;7.60;5.80;;;4.80;99.90;;;;;;5019628;28;20028;-67
2021/11/01 01:48:26;;;;;;;5.10;3.30;;;4.70;99.90;;;;;;5018071;28;20465;-67
2021/11/01 01:50:51;;;;;;;4.57;3.28;;;4.70;99.90;;;;;;5029678;28;20029;-67
2021/11/01 01:53:19;;;;;;;5.28;3.50;;;4.70;99.90;;;;;;5025827;28;20389;-67
2021/11/01 01:55:45;;;;;;;4.28;3.70;;;4.70;99.80;;;;;;5017755;28;20396;-66
2021/11/01 01:58:11;;;;;;;3.88;3.58;;;4.70;98.30;;;;;;5013559;28;20044;-66
2021/11/01 02:03:03;;;;;;;3.88;3.53;;;4.50;98.10;;;;;;5034239;28;20021;-68
2021/11/01 02:05:42;;;;;;;6.25;5.65;;;4.40;99.90;;;;;;5032554;28;20036;-67
2021/11/01 02:08:10;;;;;;;6.82;5.78;;;4.50;99.90;;;;;;5022539;28;20049;-67
2021/11/01 02:10:46;;;;;;;6.38;5.40;;;4.50;99.90;;;;;;5021212;28;20098;-67
2021/11/01 02:13:17;;;;;;;4.90;3.88;;;4.60;99.90;;;;;;5020500;28;20124;-67
2021/11/01 02:15:53;;;;;;;5.20;3.75;;;4.60;99.90;;;;;;5020044;28;20100;-67
2021/11/01 02:18:21;;;;;;;3.00;2.80;;;4.60;99.90;;;;;;5024990;28;20487;-67
2021/11/01 02:20:58;;;;;;;4.63;3.60;;;4.60;99.90;;;;;;5022044;28;20349;-68
2021/11/01 02:23:50;;;;;;;5.28;4.10;;;4.60;99.90;;;;;;5040192;28;20045;-67
2021/11/01 02:26:18;;;;;;;3.47;3.08;;;4.70;99.90;;;;;;5019844;28;20504;-67
2021/11/01 02:28:45;;;;;;;4.37;3.97;;;4.70;99.90;;;;;;5021562;28;20017;-66
2021/11/01 02:31:16;;;;;;;3.60;3.30;;;4.80;99.90;;;;;;5012844;28;20029;-67
2021/11/01 02:33:43;;;;;;;4.35;3.92;;;4.80;99.90;;;;;;5029580;28;20513;-67
2021/11/01 02:36:10;;;;;;;4.53;3.78;;;4.80;99.90;;;;;;5043677;28;20033;-67
2021/11/01 02:38:35;;;;;;;4.25;3.30;;;4.80;99.90;;;;;;5023688;28;20088;-67
2021/11/01 02:41:19;;;;;;;4.57;3.60;;;4.80;99.90;;;;;;5033046;28;20025;-67
2021/11/01 02:43:56;;;;;;;3.67;3.38;;;4.70;99.90;;;;;;5024471;28;20052;-67
2021/11/01 02:46:26;;;;;;;11.98;8.00;;;4.70;99.90;;;;;;5025558;28;20437;-67
2021/11/01 02:48:53;;;;;;;9.98;6.13;;;4.60;99.90;;;;;;5050363;28;20061;-67
2021/11/01 02:51:20;;;;;;;14.07;7.75;;;4.70;99.90;;;;;;5023975;28;20091;-68
2021/11/01 02:53:48;;;;;;;4.90;4.00;;;4.80;99.90;;;;;;5016482;28;20398;-67
2021/11/01 02:56:14;;;;;;;7.97;4.57;;;4.70;99.90;;;;;;5024579;28;20029;-67
2021/11/01 02:58:41;;;;;;;4.20;3.72;;;4.70;99.90;;;;;;5031067;28;20033;-67
2021/11/01 03:01:09;;;;;;;4.50;3.25;;;4.70;99.90;;;;;;5025122;28;20469;-68
2021/11/01 03:03:36;;;;;;;3.25;2.95;;;4.60;99.90;;;;;;5050274;28;20034;-68
2021/11/01 03:06:02;;;;;;;4.10;3.20;;;4.60;99.80;;;;;;5029521;28;20057;-67
2021/11/01 03:08:29;;;;;;;4.60;3.88;;;4.50;99.50;;;;;;5067085;28;20053;-67
2021/11/01 03:10:55;;;;;;;3.92;3.30;;;4.50;99.90;;;;;;5025290;28;20037;-67
2021/11/01 03:13:25;;;;;;;3.35;3.05;;;4.60;99.90;;;;;;5033692;28;20486;-67
2021/11/01 03:15:52;;;;;;;4.82;4.00;;;4.60;99.90;;;;;;5026651;28;20034;-66
2021/11/01 03:18:18;;;;;;;5.55;3.85;;;4.50;99.90;;;;;;5026898;28;20079;-66
2021/11/01 03:20:47;;;;;;;3.80;3.50;;;4.50;99.90;;;;;;5028237;28;20163;-67
2021/11/01 03:23:24;;;;;;;3.95;3.30;;;4.50;99.90;;;;;;5030403;28;20132;-66
2021/11/01 03:26:09;;;;;;;4.53;3.60;;;4.50;99.90;;;;;;5025865;28;20061;-67
2021/11/01 03:28:36;;;;;;;4.50;4.10;;;4.60;99.90;;;;;;5023164;28;20475;-67
2021/11/01 03:31:05;;;;;;;3.92;3.28;;;4.60;99.90;;;;;;5019339;28;20040;-67
2021/11/01 03:33:37;;;;;;;4.55;3.70;;;4.60;99.90;;;;;;5025661;28;20469;-67
2021/11/01 03:36:07;;;;;;;6.72;4.07;;;4.70;99.90;;;;;;5042363;28;20096;-67
2021/11/01 03:38:35;;;;;;;4.03;3.63;;;4.70;99.90;;;;;;5027892;28;20479;-67
2021/11/01 03:41:07;;;;;;;4.80;4.03;;;4.80;99.90;;;;;;5026478;28;20025;-67
2021/11/01 03:43:37;;;;;;;4.97;4.20;;;4.70;99.90;;;;;;5023977;28;20025;-68
2021/11/01 03:46:06;;;;;;;5.43;4.03;;;4.70;99.90;;;;;;5024123;28;20016;-67
2021/11/01 03:48:38;;;;;;;8.13;4.85;;;4.70;99.90;;;;;;5030895;28;20561;-67
2021/11/01 03:51:11;;;;;;;6.47;4.22;;;4.80;99.90;;;;;;5020391;28;20033;-67
2021/11/01 03:53:38;;;;;;;5.22;3.80;;;4.60;99.90;;;;;;5024638;28;20523;-67
2021/11/01 03:56:05;;;;;;;4.93;2.80;;;4.70;99.90;;;;;;5028292;28;20092;-67
2021/11/01 03:58:31;;;;;;;3.90;3.40;;;4.70;99.90;;;;;;5034929;28;20032;-67
2021/11/01 04:00:58;;;;;;;3.85;3.17;;;4.70;99.90;;;;;;5018334;28;20033;-67
2021/11/01 04:03:25;;;;;;;3.83;3.28;;;4.70;99.90;;;;;;5030793;28;20480;-67
2021/11/01 04:05:55;;;;;;;5.78;3.63;;;4.70;99.90;;;;;;5027467;28;20489;-67
2021/11/01 04:08:21;;;;;;;3.83;3.35;;;4.70;99.90;;;;;;5026761;28;20029;-67
2021/11/01 04:10:48;;;;;;;5.65;3.90;;;4.70;99.90;;;;;;5031871;28;20477;-67
2021/11/01 04:13:14;;;;;;;6.45;3.45;;;4.70;99.90;;;;;;5026402;28;20052;-68
2021/11/01 04:15:45;;;;;;;3.78;3.47;;;4.60;99.90;;;;;;5032896;28;20033;-67
2021/11/01 04:18:13;;;;;;;4.22;3.63;;;4.60;99.90;;;;;;5023306;28;20029;-66
2021/11/01 04:21:04;;;;;;;4.25;3.42;;;4.60;99.90;;;;;;5025654;28;20025;-67
2021/11/01 04:23:30;;;;;;;9.05;4.60;;;4.60;99.90;;;;;;5028625;28;20168;-67
2021/11/01 04:25:59;;;;;;;6.70;4.43;;;4.60;99.90;;;;;;5058476;28;20033;-67
2021/11/01 04:28:24;;;;;;;5.72;4.40;;;4.70;99.90;;;;;;5036354;28;20063;-68
2021/11/01 04:30:56;;;;;;;4.40;4.00;;;4.70;99.90;;;;;;5017499;28;20475;-67
2021/11/01 04:33:24;;;;;;;4.38;3.88;;;4.80;99.90;;;;;;5018479;28;20030;-67
2021/11/01 04:35:50;;;;;;;5.75;3.53;;;4.70;99.90;;;;;;5004555;28;20021;-67
2021/11/01 04:38:40;;;;;;;4.45;3.85;;;4.80;99.90;;;;;;5003132;28;20058;-67
2021/11/01 04:54:34;;;;;;;5.18;3.85;;;4.70;99.90;;;;;;5001701;28;20045;-68
2021/11/01 04:57:01;;;;;;;6.63;3.88;;;4.70;99.90;;;;;;5009305;28;20034;-68
2021/11/01 04:59:28;;;;;;;10.02;3.80;;;4.70;99.90;;;;;;5021166;28;20021;-68
2021/11/01 05:01:54;;;;;;;3.88;3.53;;;4.80;99.90;;;;;;5019318;28;20104;-68
2021/11/01 05:04:26;;;;;;;4.50;3.60;;;4.80;99.90;;;;;;5023150;28;20033;-68
2021/11/01 05:06:55;;;;;;;4.55;3.28;;;4.90;99.90;;;;;;5029477;28;20036;-68
2021/11/01 05:09:28;;;;;;;4.78;3.45;;;5.00;99.90;;;;;;5028670;28;20053;-68
2021/11/01 05:12:20;;;;;;;3.78;3.13;;;5.00;99.90;;;;;;5019304;28;20105;-68
2021/11/01 05:25:02;;;;;;;4.38;3.25;;;5.00;99.90;;;;;;5021797;28;20045;-68
2021/11/01 05:27:45;;;;;;;4.13;3.53;;;4.90;99.90;;;;;;5025721;28;20030;-68
2021/11/01 05:30:21;;;;;;;4.22;3.72;;;4.90;99.90;;;;;;5032215;28;20025;-67
2021/11/01 05:33:06;;;;;;;4.05;3.72;;;4.90;99.90;;;;;;5008179;28;20049;-68
2021/11/01 05:35:32;;;;;;;5.35;4.05;;;4.90;99.90;;;;;;5008523;28;20487;-67
2021/11/01 05:37:59;;;;;;;4.50;4.10;;;4.70;99.90;;;;;;4998277;28;20030;-67
2021/11/01 05:40:25;;;;;;;5.05;4.55;;;4.80;99.90;;;;;;5000837;28;20045;-67
2021/11/01 05:42:51;;;;;;;4.43;4.03;;;4.90;99.90;;;;;;5007496;28;20033;-68
2021/11/01 05:45:17;;;;;;;4.22;3.80;;;4.90;99.90;;;;;;5002051;28;20048;-68
2021/11/01 05:47:48;;;;;;;7.05;5.30;;;5.00;99.90;;;;;;5000621;28;20100;-68
2021/11/01 05:50:13;;;;;;;4.40;3.97;;;5.10;99.90;;;;;;5001229;28;20478;-68
2021/11/01 05:52:42;;;;;;;4.47;3.80;;;5.20;99.90;;;;;;5011478;28;20026;-67
2021/11/01 05:55:35;;;;;;;7.57;4.30;;;5.20;99.90;;;;;;5001859;28;20030;-68
2021/11/01 06:00:47;;;;;;;5.50;4.68;;;5.40;99.90;;;;;;5012774;28;20041;-68
2021/11/01 06:03:19;;;;;;;5.13;4.63;;;5.40;99.90;;;;;;5019100;28;20389;-68
2021/11/01 06:13:31;;;;;;;6.40;4.78;;;6.10;99.90;;;;;;5021054;28;20029;-68
2021/11/01 06:15:58;;;;;;;7.93;4.53;;;6.20;99.90;;;;;;5025030;28;20026;-68
2021/11/01 06:21:00;;;;;;;6.50;5.38;;;6.40;99.90;;;;;;5020702;28;20037;-69
2021/11/01 06:23:25;;;;;;;50.13;18.88;;;6.50;99.90;;;;;;5017859;28;20045;-66
2021/11/01 06:25:51;;;;;;;11.30;8.48;;;6.60;99.90;;;;;;5028898;28;20044;-67
2021/11/01 06:28:18;;;;;;;7.30;5.70;;;6.60;99.90;;;;;;5028105;28;20021;-67
2021/11/01 06:31:09;;;;;;;8.88;7.18;;;6.80;99.90;;;;;;5020877;28;20038;-68
2021/11/01 07:14:22;;;;;;;4.68;3.50;;;8.60;99.90;;;;;;5017684;28;20119;-68
2021/11/01 08:51:42;;;;;;;2.93;1.60;;;9.70;99.90;;;;;;4994702;28;20030;-68
2021/11/01 09:26:12;;;;;;;0.80;0.80;;;9.60;99.90;;;;;;5003808;28;20040;-68
2021/11/01 09:36:47;;;;;;;0.85;0.80;;;9.30;99.90;;;;;;5001818;28;20510;-68
2021/11/01 09:39:42;;;;;;;0.40;0.40;;;9.30;99.90;;;;;;5002179;28;20393;-68
2021/11/01 09:42:08;;;;;;;0.50;0.50;;;9.20;99.90;;;;;;4999465;28;20029;-68
2021/11/01 09:44:35;;;;;;;1.33;0.40;;;9.20;99.90;;;;;;5000473;28;20075;-68
2021/11/01 09:47:03;;;;;;;1.67;0.55;;;9.20;99.90;;;;;;4999537;28;20026;-68
2021/11/01 09:49:29;;;;;;;1.40;0.70;;;9.20;99.90;;;;;;5001259;28;20471;-69
2021/11/01 09:52:01;;;;;;;0.68;0.68;;;9.20;99.90;;;;;;5002507;28;20027;-69
2021/11/01 09:54:31;;;;;;;1.05;0.70;;;9.20;99.90;;;;;;5031903;28;20456;-68
2021/11/01 09:57:02;;;;;;;1.13;0.95;;;9.20;99.90;;;;;;4995923;28;20026;-68
2021/11/01 09:59:37;;;;;;;0.40;0.40;;;9.20;99.90;;;;;;5002681;28;20146;-67
2021/11/01 10:02:04;;;;;;;1.45;0.70;;;9.20;99.90;;;;;;4994993;28;20078;-68
2021/11/01 10:04:32;;;;;;;1.45;0.68;;;9.20;99.90;;;;;;4996615;28;20751;-69
2021/11/01 10:07:19;;;;;;;0.40;0.40;;;9.30;99.90;;;;;;4996923;28;21024;-68
2021/11/01 10:10:11;;;;;;;1.55;0.50;;;9.30;99.90;;;;;;4998917;28;20034;-68
2021/11/01 10:12:39;;;;;;;2.75;0.93;;;9.30;99.90;;;;;;4998094;28;20084;-69
2021/11/01 10:18:08;;;;;;;0.80;0.40;;;9.40;99.90;;;;;;4997485;28;19940;-68
2021/11/01 10:20:38;;;;;;;1.65;0.40;;;9.40;99.90;;;;;;4994328;28;21195;-68
2021/11/01 10:23:34;;;;;;;2.17;0.50;;;9.40;99.90;;;;;;4999872;28;20052;-68
2021/11/01 10:26:16;;;;;;;1.15;0.50;;;9.50;99.90;;;;;;4995186;28;20049;-69
2021/11/01 10:28:43;;;;;;;1.10;1.00;;;9.40;99.90;;;;;;4993651;28;20026;-68
2021/11/01 10:31:11;;;;;;;0.77;0.70;;;9.50;99.90;;;;;;4990507;28;22738;-68
2021/11/01 10:33:45;;;;;;;0.80;0.80;;;9.50;99.90;;;;;;4996233;28;20022;-68
2021/11/01 10:36:33;;;;;;;0.68;0.60;;;9.50;99.90;;;;;;4989073;28;20083;-68
2021/11/01 10:39:22;;;;;;;5.53;2.58;;;9.50;99.90;;;;;;4992989;28;20026;-68
2021/11/01 10:47:50;;;;;;;0.73;0.73;;;9.50;99.90;;;;;;4989960;28;20487;-68
2021/11/01 11:12:38;;;;;;;1.27;0.90;;;9.60;99.90;;;;;;4991549;28;20398;-70
2021/11/01 11:15:13;;;;;;;1.42;1.00;;;9.70;99.90;;;;;;4990358;28;20026;-69
2021/11/01 11:23:33;;;;;;;1.75;1.63;;;9.60;99.90;;;;;;4995168;28;20050;-69
2021/11/01 11:31:36;;;;;;;0.68;0.68;;;9.50;99.90;;;;;;4996863;28;21241;-72
2021/11/01 11:48:18;;;;;;;1.20;1.10;;;9.50;99.90;;;;;;4991271;28;20036;-69
2021/11/01 11:50:45;;;;;;;2.00;0.70;;;9.60;99.90;;;;;;4997512;28;20030;-69
2021/11/01 11:53:16;;;;;;;0.70;0.70;;;9.60;99.90;;;;;;4994750;28;20032;-69
2021/11/01 11:55:43;;;;;;;1.00;0.90;;;9.60;99.90;;;;;;4997374;28;20034;-68
2021/11/01 11:58:14;;;;;;;0.73;0.70;;;9.60;99.90;;;;;;4996662;28;20038;-69
2021/11/01 12:00:41;;;;;;;0.70;0.70;;;9.60;99.90;;;;;;4994308;28;20038;-68
2021/11/01 12:03:13;;;;;;;0.90;0.90;;;9.50;99.90;;;;;;5024376;28;20037;-69
2021/11/01 12:05:48;;;;;;;1.58;0.70;;;9.60;99.90;;;;;;4996361;28;20022;-68
2021/11/01 12:08:24;;;;;;;1.02;0.98;;;9.60;99.90;;;;;;4998603;28;20549;-68
2021/11/01 12:19:09;;;;;;;0.73;0.70;;;9.50;99.90;;;;;;4991978;28;20116;-68
2021/11/01 12:21:39;;;;;;;0.70;0.70;;;9.50;99.90;;;;;;4995613;28;20435;-68
2021/11/01 12:24:16;;;;;;;1.45;0.75;;;9.50;99.90;;;;;;4994437;28;20133;-68
2021/11/01 12:26:44;;;;;;;1.50;0.65;;;9.60;99.90;;;;;;4995503;28;20026;-68
2021/11/01 12:29:12;;;;;;;0.68;0.68;;;9.50;99.90;;;;;;4993522;28;22504;-67
2021/11/01 12:31:39;;;;;;;0.90;0.80;;;9.60;99.90;;;;;;4997854;28;20116;-67
2021/11/01 12:34:17;;;;;;;2.88;0.73;;;9.60;99.90;;;;;;4996591;28;20041;-67
2021/11/01 12:37:04;;;;;;;0.70;0.70;;;9.60;99.90;;;;;;4999334;28;20029;-67
2021/11/01 12:49:01;;;;;;;0.70;0.70;;;9.60;99.90;;;;;;4995195;28;20037;-68
2021/11/01 12:58:59;;;;;;;1.00;0.70;;;9.60;99.90;;;;;;4996904;28;20577;-68
2021/11/01 13:01:28;;;;;;;0.88;0.88;;;9.60;99.90;;;;;;4993593;28;20088;-68
2021/11/01 13:04:06;;;;;;;0.70;0.70;;;9.70;99.90;;;;;;4996539;28;20110;-69
2021/11/01 13:09:24;;;;;;;0.93;0.90;;;9.70;99.90;;;;;;4997902;28;20036;-67
2021/11/01 13:12:06;;;;;;;2.58;1.15;;;9.70;99.90;;;;;;4995449;28;20285;-68
2021/11/01 13:14:55;;;;;;;1.20;1.10;;;9.70;99.90;;;;;;4996669;28;20029;-68
2021/11/01 13:20:19;;;;;;;1.13;1.02;;;9.70;99.90;;;;;;4996295;28;20040;-69
2021/11/01 13:22:52;;;;;;;1.05;1.05;;;9.70;99.90;;;;;;4995910;28;20080;-68
2021/11/01 13:36:51;;;;;;;2.17;1.10;;;9.60;99.90;;;;;;5002783;28;20507;-68
2021/11/01 13:39:28;;;;;;;0.95;0.90;;;9.60;99.90;;;;;;5001457;28;20467;-67
2021/11/01 13:41:54;;;;;;;1.40;0.95;;;9.60;99.90;;;;;;5004284;28;20032;-68
2021/11/01 13:44:25;;;;;;;5.05;1.20;;;9.60;99.90;;;;;;5000556;28;20541;-68
2021/11/01 13:47:02;;;;;;;0.90;0.90;;;9.60;99.90;;;;;;4990117;28;20041;-68
2021/11/01 13:49:35;;;;;;;2.75;1.23;;;9.60;99.90;;;;;;4994916;28;20036;-67
2021/11/01 13:52:34;;;;;;;1.63;1.30;;;9.60;99.90;;;;;;4999582;28;20055;-68
2021/11/01 13:55:24;;;;;;;2.53;1.27;;;9.60;99.90;;;;;;4995275;28;20026;-68
2021/11/01 13:57:53;;;;;;;2.25;1.25;;;9.50;99.90;;;;;;4994581;28;20575;-68
2021/11/01 14:00:33;;;;;;;0.85;0.85;;;9.50;99.90;;;;;;5005777;28;20083;-68
2021/11/01 14:16:18;;;;;;;;;;;9.10;99.90;;;;;;4990906;28;20042;-67
2021/11/01 14:19:02;;;;;;;0.60;0.60;;;9.10;99.90;;;;;;4992048;28;19917;-68
2021/11/01 14:55:12;;;;;;;1.48;0.60;;;8.90;99.90;;;;;;4995409;28;20038;-68
2021/11/01 16:19:41;;;;;;;0.70;0.70;;;8.30;99.90;;;;;;5004679;28;20136;-67
2021/11/01 16:22:08;;;;;;;0.70;0.70;;;8.30;99.90;;;;;;5003692;28;20025;-67
2021/11/01 16:24:35;;;;;;;0.63;0.63;;;8.30;99.90;;;;;;5001016;28;20038;-67
2021/11/01 16:27:02;;;;;;;3.72;1.00;;;8.30;99.90;;;;;;4998896;28;20746;-67
2021/11/01 16:29:41;;;;;;;0.85;0.85;;;8.30;99.90;;;;;;5017638;28;20034;-67
2021/11/01 16:32:14;;;;;;;1.35;0.90;;;8.40;99.90;;;;;;5001887;28;20030;-67
2021/11/01 16:34:40;;;;;;;1.85;0.88;;;8.30;99.90;;;;;;4997999;28;20025;-67
2021/11/01 16:39:48;;;;;;;1.63;0.98;;;8.30;99.90;;;;;;5006107;28;20044;-67
2021/11/01 16:42:28;;;;;;;1.20;1.10;;;8.20;99.90;;;;;;5008672;28;20506;-67
2021/11/01 16:45:02;;;;;;;2.03;1.08;;;8.20;99.90;;;;;;5026899;28;20037;-67
2021/11/01 16:47:28;;;;;;;2.28;1.20;;;8.20;99.90;;;;;;5009874;28;20018;-67
2021/11/01 16:49:55;;;;;;;0.93;0.93;;;8.10;99.90;;;;;;5013974;28;20605;-67
2021/11/01 16:52:21;;;;;;;1.50;1.25;;;8.10;99.90;;;;;;5013873;28;20053;-66
2021/11/01 16:54:56;;;;;;;1.70;1.13;;;8.10;99.90;;;;;;5008138;28;20035;-66
2021/11/01 16:57:26;;;;;;;1.98;1.20;;;8.00;99.90;;;;;;5008595;28;20072;-67
2021/11/01 17:02:52;;;;;;;0.90;0.90;;;8.00;99.90;;;;;;4998996;28;20039;-66
2021/11/01 17:24:15;;;;;;;2.83;2.22;;;7.80;99.90;;;;;;5007906;28;20506;-68
2021/11/01 18:42:24;;;;;;;2.20;2.00;;;7.80;99.90;;;;;;5003110;28;20040;-67
2021/11/01 18:53:13;;;;;;;3.55;2.50;;;7.80;99.90;;;;;;4999870;28;20037;-67
2021/11/01 18:55:43;;;;;;;3.55;1.70;;;7.70;99.90;;;;;;4995843;28;20042;-67
2021/11/01 18:58:12;;;;;;;1.70;1.58;;;7.70;99.90;;;;;;4997959;28;20030;-68
2021/11/01 19:00:43;;;;;;;3.75;1.70;;;7.70;99.90;;;;;;5001208;28;20041;-67
2021/11/01 19:03:13;;;;;;;1.30;1.20;;;7.70;99.90;;;;;;5000815;28;20035;-68
2021/11/01 19:05:52;;;;;;;1.88;1.42;;;7.70;99.90;;;;;;4996305;28;20034;-67
2021/11/01 20:12:14;;;;;;;2.28;2.10;;;7.70;99.90;;;;;;4997420;28;20056;-68
2021/11/01 21:27:01;;;;;;;7.80;7.00;;;7.70;99.90;;;;;;4996419;28;20096;-68
2021/11/01 21:29:28;;;;;;;4.28;3.88;;;7.80;99.90;;;;;;4992832;28;20025;-69
2021/11/01 21:31:54;;;;;;;4.75;2.55;;;7.70;99.90;;;;;;5005694;28;20048;-69
2021/11/01 21:37:13;;;;;;;4.40;3.63;;;7.70;99.90;;;;;;5000387;28;20037;-69
2021/11/01 21:39:38;;;;;;;3.53;2.30;;;7.70;99.90;;;;;;5020743;28;20053;-68
2021/11/01 21:42:05;;;;;;;2.72;2.53;;;7.70;99.90;;;;;;5014317;28;20033;-68
2021/11/01 21:44:34;;;;;;;2.88;2.67;;;7.80;99.90;;;;;;5018772;28;20155;-68
2021/11/01 21:46:59;;;;;;;2.50;2.30;;;7.70;99.90;;;;;;5019716;28;20053;-69
2021/11/01 21:49:25;;;;;;;2.58;2.30;;;7.70;99.90;;;;;;5019067;28;20025;-68
2021/11/01 21:51:53;;;;;;;2.33;2.13;;;7.80;99.90;;;;;;5020022;28;20034;-69
2021/11/01 21:54:30;;;;;;;2.85;2.00;;;7.70;99.90;;;;;;5017080;28;20053;-69
2021/11/01 21:57:19;;;;;;;2.50;1.95;;;7.80;99.90;;;;;;5015592;28;20018;-69
2021/11/01 22:00:08;;;;;;;2.80;1.80;;;7.70;99.90;;;;;;5016939;28;20124;-69
2021/11/01 22:38:16;;;;;;;1.80;1.70;;;7.60;99.90;;;;;;4997567;28;20077;-68
2021/11/01 22:48:21;;;;;;;3.63;2.03;;;7.50;99.90;;;;;;4996221;28;20075;-69
2021/11/01 22:58:43;;;;;;;3.30;2.20;;;7.60;99.90;;;;;;4997371;28;20044;-68
2021/11/01 23:33:49;;;;;;;1.33;1.23;;;7.50;99.90;;;;;;5017644;28;20875;-67
2021/11/01 23:36:15;;;;;;;1.17;1.10;;;7.50;99.90;;;;;;5048696;28;20025;-67
2021/11/01 23:38:40;;;;;;;2.60;1.42;;;7.60;99.90;;;;;;5018566;28;20044;-68
2021/11/01 23:41:06;;;;;;;1.67;1.50;;;7.60;99.90;;;;;;5020884;28;20038;-67
2021/11/01 23:43:32;;;;;;;1.50;1.40;;;7.60;99.90;;;;;;5020121;28;20067;-68
2021/11/01 23:45:58;;;;;;;1.33;1.25;;;7.50;99.90;;;;;;5019579;28;20060;-68
2021/11/01 23:48:24;;;;;;;2.03;1.33;;;7.50;99.90;;;;;;5020578;28;20036;-67
2021/11/01 23:50:50;;;;;;;1.77;1.30;;;7.50;99.90;;;;;;5021721;28;20025;-67
2021/11/01 23:53:22;;;;;;;2.28;1.67;;;7.50;99.90;;;;;;5030001;28;20021;-68
2021/11/01 23:55:48;;;;;;;1.42;1.33;;;7.50;99.90;;;;;;5024318;28;20657;-67
2021/11/01 23:58:14;;;;;;;1.10;1.10;;;7.60;99.90;;;;;;5031353;28;20025;-67
